Wetterstation-Oberesslingen
Wetterdaten: aktuell Samstag, 20.01.2018 06:15
Datum Zeit Temperatur Temp+5cm Luftfeuchte Luftdruck Regen Wind Richtung Richtung Sonnenschein Zeit Regen ET Solar Taupunkt Windchill Windben
20.01.2018 06:15 2,3 C 1,7 C 86 % 1013,1 hPa 0,0 l/m 7,4 km/h (2 Bft) W 266 0 min 0 min 0,000 mm 0 W/m 0,2 C 0,1 C 12,4 km/h (2 Bft)
20.01.2018 05:15 1,8 C 1,1 C 88 % 1013,1 hPa 0,0 l/m 5,2 km/h (1 Bft) W-SW 249 0 min 0 min 0,000 mm 0 W/m 0,0 C 0,4 C 9,2 km/h (2 Bft)
20.01.2018 04:15 2,1 C 1,7 C 89 % 1013,7 hPa 0,0 l/m 5,1 km/h (1 Bft) SW 228 0 min 0 min 0,000 mm 0 W/m 0,5 C 0,7 C 9,2 km/h (2 Bft)
20.01.2018 03:15 1,9 C 1,1 C 92 % 1014,3 hPa 0,0 l/m 4,4 km/h (1 Bft) O-SO 104 0 min 0 min 0,000 mm 0 W/m 0,7 C 1,9 C 7,6 km/h (2 Bft)
20.01.2018 02:15 2,3 C 1,7 C 90 % 1015,0 hPa 0,0 l/m 5,6 km/h (2 Bft) SO 126 0 min 0 min 0,000 mm 0 W/m 0,8 C 0,8 C 10,8 km/h (2 Bft)
20.01.2018 01:15 2,2 C 1,1 C 95 % 1015,2 hPa 0,0 l/m 1,2 km/h (1 Bft) N-NW 335 0 min 0 min 0,000 mm 0 W/m 1,5 C 2,2 C 2,7 km/h (1 Bft)
20.01.2018 00:12 2,2 C 1,1 C 95 % 1014,9 hPa 0,0 l/m 1,4 km/h (1 Bft) N-NW 335 0 min 0 min 0,000 mm 0 W/m 1,5 C 2,2 C 2,7 km/h (1 Bft)
19.01.2018 23:12 2,0 C 1,7 C 96 % 1014,2 hPa 0,0 l/m 1,6 km/h (1 Bft) NW 314 0 min 0 min 0,000 mm 0 W/m 1,4 C 2,0 C 4,3 km/h (1 Bft)
19.01.2018 22:12 1,7 C 1,1 C 95 % 1013,9 hPa 0,0 l/m 1,1 km/h (1 Bft) NW 314 0 min 0 min 0,000 mm 0 W/m 1,0 C 1,7 C 1,1 km/h (1 Bft)
19.01.2018 21:12 1,7 C 1,7 C 95 % 1013,2 hPa 0,6 l/m 3,3 km/h (1 Bft) N 5 0 min 9 min 0,000 mm 0 W/m 1,0 C 1,7 C 7,6 km/h (2 Bft)
19.01.2018 20:12 1,7 C 1,7 C 94 % 1012,6 hPa 0,2 l/m 4,2 km/h (1 Bft) O-SO 113 0 min 3 min 0,000 mm 0 W/m 0,8 C 1,7 C 6,0 km/h (2 Bft)
19.01.2018 19:12 1,4 C 1,1 C 94 % 1012,6 hPa 1,8 l/m 1,1 km/h (1 Bft) N 5 0 min 28 min 0,000 mm 0 W/m 0,5 C 1,4 C 1,1 km/h (1 Bft)
19.01.2018 18:09 2,7 C 2,2 C 92 % 1012,6 hPa 0,8 l/m 2,4 km/h (1 Bft) N 355 0 min 12 min 0,000 mm 0 W/m 1,5 C 2,7 C 4,3 km/h (1 Bft)
19.01.2018 17:03 4,4 C 3,9 C 80 % 1012,7 hPa 0,0 l/m 3,9 km/h (1 Bft) NW 325 0 min 0 min 0,025 mm 0 W/m 1,3 C 4,4 C 6,0 km/h (2 Bft)
19.01.2018 16:04 5,5 C 5,6 C 72 % 1012,6 hPa 0,0 l/m 4,8 km/h (1 Bft) W-SW 250 9 min 0 min 0,051 mm 23 W/m 0,9 C 4,7 C 12,4 km/h (2 Bft)
19.01.2018 15:03 6,4 C 7,2 C 69 % 1012,4 hPa 0,0 l/m 5,4 km/h (2 Bft) SW 231 54 min 0 min 0,102 mm 139 W/m 1,1 C 5,5 C 15,6 km/h (3 Bft)
19.01.2018 14:03 5,9 C 6,7 C 69 % 1012,7 hPa 0,0 l/m 7,0 km/h (2 Bft) W-SW 251 15 min 0 min 0,101 mm 172 W/m 0,7 C 4,5 C 12,4 km/h (2 Bft)
19.01.2018 13:03 5,7 C 6,7 C 70 % 1013,2 hPa 0,0 l/m 12,3 km/h (2 Bft) W-SW 250 34 min 0 min 0,177 mm 153 W/m 0,7 C 3,1 C 20,4 km/h (4 Bft)
19.01.2018 12:00 6,1 C 12,2 C 65 % 1013,4 hPa 0,0 l/m 13,3 km/h (3 Bft) W 259 51 min 0 min 0,050 mm 478 W/m 0,0 C 3,4 C 22,1 km/h (4 Bft)
19.01.2018 11:00 4,6 C 5,0 C 74 % 1013,9 hPa 0,0 l/m 7,9 km/h (2 Bft) W 260 9 min 0 min 0,051 mm 100 W/m 0,4 C 2,7 C 15,6 km/h (3 Bft)
19.01.2018 10:00 4,3 C 5,0 C 76 % 1013,0 hPa 0,0 l/m 5,7 km/h (2 Bft) W-SW 242 9 min 0 min 0,026 mm 109 W/m 0,5 C 3,0 C 10,8 km/h (2 Bft)
19.01.2018 08:54 3,6 C 2,8 C 76 % 1012,0 hPa 0,0 l/m 5,5 km/h (2 Bft) W-SW 253 0 min 0 min 0,025 mm 21 W/m -0,2 C 2,3 C 12,4 km/h (2 Bft)
19.01.2018 07:54 3,8 C 1,7 C 78 % 1010,6 hPa 0,0 l/m 5,2 km/h (1 Bft) W 276 0 min 0 min 0,000 mm 0 W/m 0,3 C 2,6 C 12,4 km/h (2 Bft)
19.01.2018 07:00 3,7 C 1,1 C 82 % 1009,5 hPa 0,0 l/m 4,3 km/h (1 Bft) W-SW 246 0 min 0 min 0,000 mm 0 W/m 0,9 C 3,7 C 7,6 km/h (2 Bft)
_ Min-Zeit 19:03 04:48 11:57 07:00 - 19:03 - - - - - - 08:36 05:33 19:03
Minimum _ 1,4 C 0,6 C 64 % 1009,5 hPa - 1,1 km/h (1 Bft) - - - - - - -0,4 C -0,1 C 1,1 km/h (1 Bft)
_ Max-Zeit 12:15 11:42 23:03 01:09 18:24 11:36 - - 11:50 18:24 13:03 12:03 23:48 14:30 11:36
Maximum _ 6,8 C 13,3 C 96 % 1015,3 hPa 0,4 l/m 15,5 km/h
S-SW (3 Bft)
- - 5 min 6 min 0,177 mm 490 W/m 1,6 C 6,3 C 26,9 km/h
W-SW (4 Bft)
Durchschnitt _ 3,4 C 3,2 C 84 % 1012,9 hPa #3,6 l/m 4,5 km/h (1 Bft) NW - #0 min. #0 min. #0,000 mm 0 W/m 0,7 C 2,7 C 8,8 km/h (2 Bft)